sensor_id;sensor_type;location;lat;lon;timestamp;pressure;altitude;pressure_sealevel;temperature;humidity
21357;BME280;10836;53.068;18.234;2023-07-20T00:02:05;100398.78;;;12.39;100.00
21357;BME280;10836;53.068;18.234;2023-07-20T00:04:34;100394.41;;;12.38;100.00
21357;BME280;10836;53.068;18.234;2023-07-20T00:07:01;100396.63;;;12.36;100.00
21357;BME280;10836;53.068;18.234;2023-07-20T00:09:28;100393.41;;;12.29;100.00
21357;BME280;10836;53.068;18.234;2023-07-20T00:11:55;100402.31;;;12.40;100.00
21357;BME280;10836;53.068;18.234;2023-07-20T00:14:22;100404.13;;;12.49;100.00
21357;BME280;10836;53.068;18.234;2023-07-20T00:16:52;100402.44;;;12.53;100.00
21357;BME280;10836;53.068;18.234;2023-07-20T00:19:26;100394.75;;;12.55;100.00
21357;BME280;10836;53.068;18.234;2023-07-20T00:21:54;100399.00;;;12.61;100.00
21357;BME280;10836;53.068;18.234;2023-07-20T00:24:22;100405.75;;;12.50;100.00
21357;BME280;10836;53.068;18.234;2023-07-20T00:26:49;100393.94;;;12.31;100.00
21357;BME280;10836;53.068;18.234;2023-07-20T00:29:16;100391.72;;;12.33;100.00
21357;BME280;10836;53.068;18.234;2023-07-20T00:31:43;100392.06;;;12.26;100.00
21357;BME280;10836;53.068;18.234;2023-07-20T00:34:10;100393.13;;;12.30;100.00
21357;BME280;10836;53.068;18.234;2023-07-20T00:36:38;100394.47;;;12.33;100.00
21357;BME280;10836;53.068;18.234;2023-07-20T00:39:04;100400.94;;;12.42;100.00
21357;BME280;10836;53.068;18.234;2023-07-20T00:41:32;100403.97;;;12.59;100.00
21357;BME280;10836;53.068;18.234;2023-07-20T00:43:59;100402.72;;;12.71;100.00
21357;BME280;10836;53.068;18.234;2023-07-20T00:46:26;100395.56;;;12.56;100.00
21357;BME280;10836;53.068;18.234;2023-07-20T00:48:54;100383.84;;;12.50;100.00
21357;BME280;10836;53.068;18.234;2023-07-20T00:51:22;100389.84;;;12.52;100.00
21357;BME280;10836;53.068;18.234;2023-07-20T00:53:50;100395.31;;;12.52;100.00
21357;BME280;10836;53.068;18.234;2023-07-20T00:56:17;100387.63;;;12.54;100.00
21357;BME280;10836;53.068;18.234;2023-07-20T00:58:44;100388.28;;;12.46;100.00
21357;BME280;10836;53.068;18.234;2023-07-20T01:01:13;100387.22;;;12.42;100.00
21357;BME280;10836;53.068;18.234;2023-07-20T01:03:40;100394.84;;;12.45;100.00
21357;BME280;10836;53.068;18.234;2023-07-20T01:06:24;100396.94;;;12.53;100.00
21357;BME280;10836;53.068;18.234;2023-07-20T01:09:04;100401.38;;;12.49;100.00
21357;BME280;10836;53.068;18.234;2023-07-20T01:11:42;100396.94;;;12.53;100.00
21357;BME280;10836;53.068;18.234;2023-07-20T01:14:11;100394.94;;;12.40;100.00
21357;BME280;10836;53.068;18.234;2023-07-20T01:16:38;100400.22;;;12.31;100.00
21357;BME280;10836;53.068;18.234;2023-07-20T01:19:06;100393.47;;;12.24;100.00
21357;BME280;10836;53.068;18.234;2023-07-20T01:21:39;100395.69;;;12.22;100.00
21357;BME280;10836;53.068;18.234;2023-07-20T01:30:13;100402.56;;;12.43;100.00
21357;BME280;10836;53.068;18.234;2023-07-20T01:32:44;100395.69;;;12.22;100.00
21357;BME280;10836;53.068;18.234;2023-07-20T01:35:14;100394.25;;;12.06;100.00
21357;BME280;10836;53.068;18.234;2023-07-20T01:37:44;100399.28;;;12.17;100.00
21357;BME280;10836;53.068;18.234;2023-07-20T01:40:13;100406.78;;;12.12;100.00
21357;BME280;10836;53.068;18.234;2023-07-20T01:42:48;100402.31;;;12.16;100.00
21357;BME280;10836;53.068;18.234;2023-07-20T01:45:15;100405.13;;;12.11;100.00
21357;BME280;10836;53.068;18.234;2023-07-20T01:47:42;100407.25;;;12.14;100.00
21357;BME280;10836;53.068;18.234;2023-07-20T01:50:09;100404.47;;;12.19;100.00
21357;BME280;10836;53.068;18.234;2023-07-20T01:52:36;100400.00;;;12.28;100.00
21357;BME280;10836;53.068;18.234;2023-07-20T01:55:03;100408.22;;;12.28;100.00
21357;BME280;10836;53.068;18.234;2023-07-20T01:57:31;100408.50;;;12.26;100.00
21357;BME280;10836;53.068;18.234;2023-07-20T01:59:58;100404.81;;;12.36;100.00
21357;BME280;10836;53.068;18.234;2023-07-20T02:02:26;100414.22;;;12.30;100.00
21357;BME280;10836;53.068;18.234;2023-07-20T02:04:54;100414.72;;;12.32;100.00
21357;BME280;10836;53.068;18.234;2023-07-20T02:07:21;100417.34;;;12.42;100.00
21357;BME280;10836;53.068;18.234;2023-07-20T02:09:48;100416.78;;;12.45;100.00
21357;BME280;10836;53.068;18.234;2023-07-20T02:12:15;100418.09;;;12.48;100.00
21357;BME280;10836;53.068;18.234;2023-07-20T02:14:42;100425.44;;;12.52;100.00
21357;BME280;10836;53.068;18.234;2023-07-20T02:17:09;100420.34;;;12.64;100.00
21357;BME280;10836;53.068;18.234;2023-07-20T02:19:40;100425.47;;;12.71;100.00
21357;BME280;10836;53.068;18.234;2023-07-20T02:22:07;100426.88;;;12.69;100.00
21357;BME280;10836;53.068;18.234;2023-07-20T02:24:34;100424.06;;;12.74;100.00
21357;BME280;10836;53.068;18.234;2023-07-20T02:27:01;100420.66;;;12.82;100.00
21357;BME280;10836;53.068;18.234;2023-07-20T02:29:28;100422.06;;;12.79;100.00
21357;BME280;10836;53.068;18.234;2023-07-20T02:31:55;100419.09;;;12.76;100.00
21357;BME280;10836;53.068;18.234;2023-07-20T02:34:22;100411.78;;;12.90;100.00
21357;BME280;10836;53.068;18.234;2023-07-20T02:36:49;100414.00;;;12.88;100.00
21357;BME280;10836;53.068;18.234;2023-07-20T02:39:16;100403.84;;;12.88;100.00
21357;BME280;10836;53.068;18.234;2023-07-20T02:41:43;100399.25;;;13.03;100.00
21357;BME280;10836;53.068;18.234;2023-07-20T02:44:10;100404.00;;;12.97;100.00
21357;BME280;10836;53.068;18.234;2023-07-20T02:46:37;100406.81;;;12.92;100.00
21357;BME280;10836;53.068;18.234;2023-07-20T02:49:05;100401.41;;;12.87;100.00
21357;BME280;10836;53.068;18.234;2023-07-20T02:51:32;100394.91;;;12.83;100.00
21357;BME280;10836;53.068;18.234;2023-07-20T02:53:59;100408.88;;;13.00;100.00
21357;BME280;10836;53.068;18.234;2023-07-20T02:56:26;100413.25;;;13.01;100.00
21357;BME280;10836;53.068;18.234;2023-07-20T02:58:53;100408.50;;;13.07;100.00
21357;BME280;10836;53.068;18.234;2023-07-20T03:01:21;100409.63;;;13.06;100.00
21357;BME280;10836;53.068;18.234;2023-07-20T03:03:48;100414.88;;;13.02;100.00
21357;BME280;10836;53.068;18.234;2023-07-20T03:06:16;100415.31;;;13.09;100.00
21357;BME280;10836;53.068;18.234;2023-07-20T03:08:43;100411.94;;;13.17;100.00
21357;BME280;10836;53.068;18.234;2023-07-20T03:11:20;100414.84;;;13.26;100.00
21357;BME280;10836;53.068;18.234;2023-07-20T03:13:47;100419.94;;;13.32;100.00
21357;BME280;10836;53.068;18.234;2023-07-20T03:16:18;100409.72;;;13.19;100.00
21357;BME280;10836;53.068;18.234;2023-07-20T03:18:45;100405.53;;;13.03;100.00
21357;BME280;10836;53.068;18.234;2023-07-20T03:21:13;100400.97;;;13.17;100.00
21357;BME280;10836;53.068;18.234;2023-07-20T03:23:40;100401.34;;;13.29;100.00
21357;BME280;10836;53.068;18.234;2023-07-20T03:26:09;100407.66;;;13.44;100.00
21357;BME280;10836;53.068;18.234;2023-07-20T03:28:37;100407.22;;;13.55;100.00
21357;BME280;10836;53.068;18.234;2023-07-20T03:31:05;100406.44;;;13.69;100.00
21357;BME280;10836;53.068;18.234;2023-07-20T03:33:36;100402.78;;;13.73;100.00
21357;BME280;10836;53.068;18.234;2023-07-20T03:36:03;100409.31;;;13.77;100.00
21357;BME280;10836;53.068;18.234;2023-07-20T03:38:30;100407.88;;;13.93;100.00
21357;BME280;10836;53.068;18.234;2023-07-20T03:40:59;100412.69;;;14.02;100.00
21357;BME280;10836;53.068;18.234;2023-07-20T03:43:27;100414.03;;;14.18;100.00
21357;BME280;10836;53.068;18.234;2023-07-20T03:45:55;100420.72;;;14.12;100.00
21357;BME280;10836;53.068;18.234;2023-07-20T03:48:24;100423.91;;;14.19;100.00
21357;BME280;10836;53.068;18.234;2023-07-20T03:50:54;100422.03;;;14.01;100.00
21357;BME280;10836;53.068;18.234;2023-07-20T03:53:21;100422.34;;;13.99;100.00
21357;BME280;10836;53.068;18.234;2023-07-20T03:55:50;100420.72;;;13.84;100.00
21357;BME280;10836;53.068;18.234;2023-07-20T03:58:18;100419.78;;;13.89;100.00
21357;BME280;10836;53.068;18.234;2023-07-20T04:00:46;100426.84;;;14.09;100.00
21357;BME280;10836;53.068;18.234;2023-07-20T04:03:14;100426.19;;;13.98;100.00
21357;BME280;10836;53.068;18.234;2023-07-20T04:05:42;100420.31;;;14.05;100.00
21357;BME280;10836;53.068;18.234;2023-07-20T04:08:09;100421.75;;;14.16;100.00
21357;BME280;10836;53.068;18.234;2023-07-20T04:10:38;100416.38;;;14.24;100.00
21357;BME280;10836;53.068;18.234;2023-07-20T04:13:05;100425.81;;;14.32;100.00
21357;BME280;10836;53.068;18.234;2023-07-20T04:15:33;100429.50;;;14.41;100.00
21357;BME280;10836;53.068;18.234;2023-07-20T04:18:00;100432.78;;;14.43;100.00
21357;BME280;10836;53.068;18.234;2023-07-20T04:20:28;100419.81;;;14.30;100.00
21357;BME280;10836;53.068;18.234;2023-07-20T04:22:55;100418.50;;;14.27;100.00
21357;BME280;10836;53.068;18.234;2023-07-20T04:25:22;100429.38;;;14.19;100.00
21357;BME280;10836;53.068;18.234;2023-07-20T04:27:49;100423.00;;;14.23;100.00
21357;BME280;10836;53.068;18.234;2023-07-20T04:30:19;100428.66;;;14.41;100.00
21357;BME280;10836;53.068;18.234;2023-07-20T04:32:49;100434.41;;;14.58;100.00
21357;BME280;10836;53.068;18.234;2023-07-20T04:38:17;100425.13;;;14.68;100.00
21357;BME280;10836;53.068;18.234;2023-07-20T04:40:48;100421.53;;;14.81;100.00
21357;BME280;10836;53.068;18.234;2023-07-20T04:43:16;100439.94;;;14.80;100.00
21357;BME280;10836;53.068;18.234;2023-07-20T04:45:45;100434.34;;;14.85;100.00
21357;BME280;10836;53.068;18.234;2023-07-20T04:48:15;100426.59;;;15.01;100.00
21357;BME280;10836;53.068;18.234;2023-07-20T04:50:49;100433.03;;;15.19;100.00
21357;BME280;10836;53.068;18.234;2023-07-20T04:53:16;100439.59;;;15.09;100.00
21357;BME280;10836;53.068;18.234;2023-07-20T04:55:48;100427.59;;;15.05;100.00
21357;BME280;10836;53.068;18.234;2023-07-20T04:58:23;100426.41;;;14.84;100.00
21357;BME280;10836;53.068;18.234;2023-07-20T05:00:52;100428.44;;;14.92;100.00
21357;BME280;10836;53.068;18.234;2023-07-20T05:03:20;100438.53;;;15.19;100.00
21357;BME280;10836;53.068;18.234;2023-07-20T05:05:48;100434.53;;;15.25;100.00
21357;BME280;10836;53.068;18.234;2023-07-20T05:08:16;100434.84;;;15.23;100.00
21357;BME280;10836;53.068;18.234;2023-07-20T05:10:44;100437.09;;;15.21;100.00
21357;BME280;10836;53.068;18.234;2023-07-20T05:13:10;100433.47;;;15.12;100.00
21357;BME280;10836;53.068;18.234;2023-07-20T05:15:38;100434.72;;;15.06;100.00
21357;BME280;10836;53.068;18.234;2023-07-20T05:18:08;100425.97;;;15.04;100.00
21357;BME280;10836;53.068;18.234;2023-07-20T05:20:35;100421.22;;;15.18;100.00
21357;BME280;10836;53.068;18.234;2023-07-20T05:23:03;100431.25;;;15.14;100.00
21357;BME280;10836;53.068;18.234;2023-07-20T05:25:31;100430.31;;;15.41;100.00
21357;BME280;10836;53.068;18.234;2023-07-20T05:27:58;100438.63;;;15.50;100.00
21357;BME280;10836;53.068;18.234;2023-07-20T05:30:25;100437.38;;;15.56;100.00
21357;BME280;10836;53.068;18.234;2023-07-20T05:32:52;100438.63;;;15.50;100.00
21357;BME280;10836;53.068;18.234;2023-07-20T05:35:21;100434.03;;;15.59;100.00
21357;BME280;10836;53.068;18.234;2023-07-20T05:37:49;100445.41;;;15.66;100.00
21357;BME280;10836;53.068;18.234;2023-07-20T05:40:16;100439.84;;;15.57;100.00
21357;BME280;10836;53.068;18.234;2023-07-20T05:42:48;100446.31;;;15.39;100.00
21357;BME280;10836;53.068;18.234;2023-07-20T05:45:18;100444.38;;;15.40;100.00
21357;BME280;10836;53.068;18.234;2023-07-20T05:47:46;100452.13;;;15.38;100.00
21357;BME280;10836;53.068;18.234;2023-07-20T05:50:13;100442.41;;;15.18;100.00
21357;BME280;10836;53.068;18.234;2023-07-20T05:52:40;100440.84;;;15.25;100.00
21357;BME280;10836;53.068;18.234;2023-07-20T05:55:07;100434.03;;;15.59;100.00
21357;BME280;10836;53.068;18.234;2023-07-20T05:57:34;100431.88;;;15.78;100.00
21357;BME280;10836;53.068;18.234;2023-07-20T06:00:02;100429.19;;;15.87;100.00
21357;BME280;10836;53.068;18.234;2023-07-20T06:02:38;100437.88;;;16.03;100.00
21357;BME280;10836;53.068;18.234;2023-07-20T06:05:08;100442.13;;;15.86;100.00
21357;BME280;10836;53.068;18.234;2023-07-20T06:07:38;100433.25;;;15.89;100.00
21357;BME280;10836;53.068;18.234;2023-07-20T06:10:06;100433.19;;;15.81;100.00
21357;BME280;10836;53.068;18.234;2023-07-20T06:12:33;100439.63;;;15.54;100.00
21357;BME280;10836;53.068;18.234;2023-07-20T06:15:02;100448.78;;;15.63;100.00
21357;BME280;10836;53.068;18.234;2023-07-20T06:17:30;100447.16;;;15.62;100.00
21357;BME280;10836;53.068;18.234;2023-07-20T06:19:57;100444.75;;;15.91;100.00
21357;BME280;10836;53.068;18.234;2023-07-20T06:22:24;100438.88;;;15.84;100.00
21357;BME280;10836;53.068;18.234;2023-07-20T06:24:51;100439.69;;;15.85;100.00
21357;BME280;10836;53.068;18.234;2023-07-20T06:27:18;100441.94;;;16.45;100.00
21357;BME280;10836;53.068;18.234;2023-07-20T06:29:45;100439.59;;;16.69;100.00
21357;BME280;10836;53.068;18.234;2023-07-20T06:32:12;100453.25;;;16.83;100.00
21357;BME280;10836;53.068;18.234;2023-07-20T06:34:40;100444.00;;;16.79;100.00
21357;BME280;10836;53.068;18.234;2023-07-20T06:37:07;100451.63;;;16.99;100.00
21357;BME280;10836;53.068;18.234;2023-07-20T06:39:34;100454.56;;;17.11;100.00
21357;BME280;10836;53.068;18.234;2023-07-20T06:42:04;100450.81;;;16.99;100.00
21357;BME280;10836;53.068;18.234;2023-07-20T06:44:31;100448.41;;;17.14;100.00
21357;BME280;10836;53.068;18.234;2023-07-20T06:46:58;100457.47;;;16.89;100.00
21357;BME280;10836;53.068;18.234;2023-07-20T06:49:26;100450.16;;;16.93;100.00
21357;BME280;10836;53.068;18.234;2023-07-20T06:51:53;100456.69;;;17.23;100.00
21357;BME280;10836;53.068;18.234;2023-07-20T06:54:20;100455.22;;;17.43;100.00
21357;BME280;10836;53.068;18.234;2023-07-20T06:56:50;100449.38;;;17.36;95.84
21357;BME280;10836;53.068;18.234;2023-07-20T06:59:37;100459.44;;;17.14;96.47
21357;BME280;10836;53.068;18.234;2023-07-20T07:02:07;100457.34;;;17.46;95.26
21357;BME280;10836;53.068;18.234;2023-07-20T07:04:41;100452.81;;;17.76;94.28
21357;BME280;10836;53.068;18.234;2023-07-20T07:07:09;100448.53;;;18.42;94.58
21357;BME280;10836;53.068;18.234;2023-07-20T07:09:36;100458.72;;;19.09;88.99
21357;BME280;10836;53.068;18.234;2023-07-20T07:12:04;100462.03;;;19.65;86.71
21357;BME280;10836;53.068;18.234;2023-07-20T07:14:31;100455.66;;;18.81;86.22
21357;BME280;10836;53.068;18.234;2023-07-20T07:16:59;100455.28;;;19.12;86.30
21357;BME280;10836;53.068;18.234;2023-07-20T07:19:31;100458.22;;;19.90;85.27
21357;BME280;10836;53.068;18.234;2023-07-20T07:21:58;100456.88;;;20.21;81.30
21357;BME280;10836;53.068;18.234;2023-07-20T07:24:27;100443.91;;;19.88;81.72
21357;BME280;10836;53.068;18.234;2023-07-20T07:27:00;100442.59;;;20.31;79.03
21357;BME280;10836;53.068;18.234;2023-07-20T07:29:28;100449.31;;;19.97;80.44
21357;BME280;10836;53.068;18.234;2023-07-20T07:31:55;100452.97;;;19.77;80.49
21357;BME280;10836;53.068;18.234;2023-07-20T07:34:22;100452.75;;;20.88;75.71
21357;BME280;10836;53.068;18.234;2023-07-20T07:36:49;100459.13;;;20.88;71.66
21357;BME280;10836;53.068;18.234;2023-07-20T07:39:17;100452.94;;;21.19;70.36
21357;BME280;10836;53.068;18.234;2023-07-20T07:41:47;100453.25;;;20.53;73.02
21357;BME280;10836;53.068;18.234;2023-07-20T07:44:14;100451.59;;;20.28;73.63
21357;BME280;10836;53.068;18.234;2023-07-20T07:46:41;100468.59;;;19.93;75.32
21357;BME280;10836;53.068;18.234;2023-07-20T07:49:08;100454.19;;;20.70;71.66
21357;BME280;10836;53.068;18.234;2023-07-20T07:51:35;100456.88;;;20.21;72.59
21357;BME280;10836;53.068;18.234;2023-07-20T07:54:02;100450.88;;;21.04;70.73
21357;BME280;10836;53.068;18.234;2023-07-20T07:56:29;100455.75;;;21.07;71.07
21357;BME280;10836;53.068;18.234;2023-07-20T07:58:56;100458.06;;;20.32;71.57
21357;BME280;10836;53.068;18.234;2023-07-20T08:01:23;100451.03;;;20.35;72.96
21357;BME280;10836;53.068;18.234;2023-07-20T08:03:51;100455.97;;;20.17;72.80
21357;BME280;10836;53.068;18.234;2023-07-20T08:06:18;100460.56;;;20.13;72.50
21357;BME280;10836;53.068;18.234;2023-07-20T08:08:45;100467.56;;;19.86;73.79
21357;BME280;10836;53.068;18.234;2023-07-20T08:11:11;100470.81;;;19.67;76.15
21357;BME280;10836;53.068;18.234;2023-07-20T08:13:41;100458.13;;;19.24;78.68
21357;BME280;10836;53.068;18.234;2023-07-20T08:16:08;100468.25;;;19.41;77.88
21357;BME280;10836;53.068;18.234;2023-07-20T08:18:35;100467.31;;;19.16;79.72
21357;BME280;10836;53.068;18.234;2023-07-20T08:21:02;100464.16;;;19.06;80.81
21357;BME280;10836;53.068;18.234;2023-07-20T08:23:30;100461.88;;;18.40;84.42
21357;BME280;10836;53.068;18.234;2023-07-20T08:25:57;100456.25;;;18.57;88.44
21357;BME280;10836;53.068;18.234;2023-07-20T08:28:24;100460.16;;;19.57;84.16
21357;BME280;10836;53.068;18.234;2023-07-20T08:30:53;100452.31;;;20.49;75.73
21357;BME280;10836;53.068;18.234;2023-07-20T08:33:20;100446.41;;;20.87;72.27
21357;BME280;10836;53.068;18.234;2023-07-20T08:35:47;100440.06;;;20.63;70.08
21357;BME280;10836;53.068;18.234;2023-07-20T08:38:14;100450.22;;;20.34;71.91
21357;BME280;10836;53.068;18.234;2023-07-20T08:40:45;100447.66;;;20.29;71.47
21357;BME280;10836;53.068;18.234;2023-07-20T08:43:13;100454.84;;;20.30;70.98
21357;BME280;10836;53.068;18.234;2023-07-20T08:45:40;100454.97;;;19.88;73.26
21357;BME280;10836;53.068;18.234;2023-07-20T08:48:08;100451.53;;;20.04;73.85
21357;BME280;10836;53.068;18.234;2023-07-20T08:50:35;100455.34;;;19.99;73.75
21357;BME280;10836;53.068;18.234;2023-07-20T08:53:02;100456.59;;;19.89;74.61
21357;BME280;10836;53.068;18.234;2023-07-20T08:55:30;100452.09;;;19.85;74.20
21357;BME280;10836;53.068;18.234;2023-07-20T08:57:59;100445.63;;;20.63;72.59
21357;BME280;10836;53.068;18.234;2023-07-20T09:00:27;100448.75;;;21.38;69.53
21357;BME280;10836;53.068;18.234;2023-07-20T09:02:57;100453.69;;;21.44;68.84
21357;BME280;10836;53.068;18.234;2023-07-20T09:05:24;100444.47;;;21.28;67.54
21357;BME280;10836;53.068;18.234;2023-07-20T09:07:53;100444.63;;;21.19;67.76
21357;BME280;10836;53.068;18.234;2023-07-20T09:10:21;100447.34;;;20.67;65.87
21357;BME280;10836;53.068;18.234;2023-07-20T09:12:49;100442.16;;;20.53;66.33
21357;BME280;10836;53.068;18.234;2023-07-20T09:15:16;100443.28;;;20.89;64.64
21357;BME280;10836;53.068;18.234;2023-07-20T09:17:47;100446.03;;;21.01;65.80
21357;BME280;10836;53.068;18.234;2023-07-20T09:20:17;100441.88;;;20.95;64.91
21357;BME280;10836;53.068;18.234;2023-07-20T09:22:48;100438.38;;;21.10;65.59
21357;BME280;10836;53.068;18.234;2023-07-20T09:25:18;100441.75;;;22.00;62.83
21357;BME280;10836;53.068;18.234;2023-07-20T09:27:49;100439.56;;;22.37;58.77
21357;BME280;10836;53.068;18.234;2023-07-20T09:30:18;100439.81;;;22.16;56.15
21357;BME280;10836;53.068;18.234;2023-07-20T09:32:47;100440.38;;;21.50;57.72
21357;BME280;10836;53.068;18.234;2023-07-20T09:35:22;100434.84;;;21.38;58.16
21357;BME280;10836;53.068;18.234;2023-07-20T09:37:57;100431.66;;;21.23;60.11
21357;BME280;10836;53.068;18.234;2023-07-20T09:40:27;100439.91;;;21.48;58.14
21357;BME280;10836;53.068;18.234;2023-07-20T09:42:59;100432.47;;;22.39;57.17
21357;BME280;10836;53.068;18.234;2023-07-20T09:45:34;100427.34;;;23.27;54.55
21357;BME280;10836;53.068;18.234;2023-07-20T09:48:06;100433.59;;;23.59;49.88
21357;BME280;10836;53.068;18.234;2023-07-20T09:50:40;100419.66;;;23.78;47.22
21357;BME280;10836;53.068;18.234;2023-07-20T09:53:12;100424.75;;;22.99;51.05
21357;BME280;10836;53.068;18.234;2023-07-20T09:55:43;100409.34;;;23.05;48.15
21357;BME280;10836;53.068;18.234;2023-07-20T09:58:10;100419.31;;;23.06;48.61
21357;BME280;10836;53.068;18.234;2023-07-20T10:00:39;100408.94;;;22.21;51.88
21357;BME280;10836;53.068;18.234;2023-07-20T10:03:10;100415.94;;;22.31;50.92
21357;BME280;10836;53.068;18.234;2023-07-20T10:05:43;100416.31;;;22.29;50.92
21357;BME280;10836;53.068;18.234;2023-07-20T10:08:12;100415.66;;;23.41;49.17
21357;BME280;10836;53.068;18.234;2023-07-20T10:10:42;100412.09;;;24.47;46.71
21357;BME280;10836;53.068;18.234;2023-07-20T10:13:17;100404.72;;;24.59;42.92
21357;BME280;10836;53.068;18.234;2023-07-20T10:15:51;100408.03;;;25.54;42.40
21357;BME280;10836;53.068;18.234;2023-07-20T10:18:25;100402.06;;;25.93;41.66
21357;BME280;10836;53.068;18.234;2023-07-20T10:20:56;100409.88;;;25.76;40.45
21357;BME280;10836;53.068;18.234;2023-07-20T10:23:29;100415.28;;;25.62;40.90
21357;BME280;10836;53.068;18.234;2023-07-20T10:25:57;100404.38;;;24.64;41.68
21357;BME280;10836;53.068;18.234;2023-07-20T10:28:27;100394.75;;;24.12;43.29
21357;BME280;10836;53.068;18.234;2023-07-20T10:30:54;100409.13;;;24.60;41.75
21357;BME280;10836;53.068;18.234;2023-07-20T10:33:21;100415.44;;;24.83;41.42
21357;BME280;10836;53.068;18.234;2023-07-20T10:36:02;100394.78;;;24.61;42.54
21357;BME280;10836;53.068;18.234;2023-07-20T10:41:21;100385.66;;;24.94;41.55
21357;BME280;10836;53.068;18.234;2023-07-20T10:43:49;100386.34;;;25.44;42.42
21357;BME280;10836;53.068;18.234;2023-07-20T10:49:05;100391.06;;;23.85;42.06
21357;BME280;10836;53.068;18.234;2023-07-20T10:51:46;100387.97;;;23.48;44.06
21357;BME280;10836;53.068;18.234;2023-07-20T10:56:48;100382.78;;;24.34;42.13
21357;BME280;10836;53.068;18.234;2023-07-20T10:59:20;100380.00;;;24.34;40.35
21357;BME280;10836;53.068;18.234;2023-07-20T11:02:06;100381.22;;;23.68;41.85
21357;BME280;10836;53.068;18.234;2023-07-20T11:04:41;100382.84;;;23.92;42.64
21357;BME280;10836;53.068;18.234;2023-07-20T11:07:09;100385.34;;;23.36;42.98
21357;BME280;10836;53.068;18.234;2023-07-20T11:09:38;100385.63;;;22.92;43.26
21357;BME280;10836;53.068;18.234;2023-07-20T11:12:23;100382.16;;;22.64;43.50
21357;BME280;10836;53.068;18.234;2023-07-20T11:14:56;100385.34;;;23.36;44.17
21357;BME280;10836;53.068;18.234;2023-07-20T11:17:33;100380.63;;;24.77;44.04
21357;BME280;10836;53.068;18.234;2023-07-20T11:20:02;100382.13;;;25.27;39.84
21357;BME280;10836;53.068;18.234;2023-07-20T11:22:33;100378.22;;;24.75;39.44
21357;BME280;10836;53.068;18.234;2023-07-20T11:25:00;100378.88;;;24.16;41.35
21357;BME280;10836;53.068;18.234;2023-07-20T11:27:27;100376.59;;;24.21;42.74
21357;BME280;10836;53.068;18.234;2023-07-20T11:29:56;100361.84;;;23.98;42.32
21357;BME280;10836;53.068;18.234;2023-07-20T11:32:23;100369.75;;;23.96;42.12
21357;BME280;10836;53.068;18.234;2023-07-20T11:34:51;100360.09;;;24.36;41.93
21357;BME280;10836;53.068;18.234;2023-07-20T11:37:18;100365.00;;;23.97;43.49
21357;BME280;10836;53.068;18.234;2023-07-20T11:39:46;100368.03;;;23.65;44.43
21357;BME280;10836;53.068;18.234;2023-07-20T11:42:13;100351.72;;;23.48;44.63
21357;BME280;10836;53.068;18.234;2023-07-20T11:45:03;100349.16;;;25.06;42.30
21357;BME280;10836;53.068;18.234;2023-07-20T11:47:32;100353.94;;;25.39;39.85
21357;BME280;10836;53.068;18.234;2023-07-20T11:50:03;100348.06;;;24.88;40.95
21357;BME280;10836;53.068;18.234;2023-07-20T11:52:31;100357.75;;;24.94;40.50
21357;BME280;10836;53.068;18.234;2023-07-20T11:54:58;100369.38;;;24.43;39.31
21357;BME280;10836;53.068;18.234;2023-07-20T11:57:25;100377.25;;;23.69;42.57
21357;BME280;10836;53.068;18.234;2023-07-20T12:00:02;100376.53;;;23.53;43.21
21357;BME280;10836;53.068;18.234;2023-07-20T12:02:32;100385.19;;;23.29;43.58
21357;BME280;10836;53.068;18.234;2023-07-20T12:05:01;100423.88;;;23.14;44.33
21357;BME280;10836;53.068;18.234;2023-07-20T12:07:29;100428.78;;;21.76;50.94
21357;BME280;10836;53.068;18.234;2023-07-20T12:10:12;100415.03;;;19.89;59.35
21357;BME280;10836;53.068;18.234;2023-07-20T12:12:40;100455.56;;;19.61;62.53
21357;BME280;10836;53.068;18.234;2023-07-20T12:15:27;100460.44;;;19.02;65.84
21357;BME280;10836;53.068;18.234;2023-07-20T12:17:57;100458.63;;;18.76;68.78
21357;BME280;10836;53.068;18.234;2023-07-20T12:23:09;100461.34;;;18.85;75.89
21357;BME280;10836;53.068;18.234;2023-07-20T12:25:42;100460.47;;;18.93;75.50
21357;BME280;10836;53.068;18.234;2023-07-20T12:28:11;100467.59;;;19.03;74.84
21357;BME280;10836;53.068;18.234;2023-07-20T12:30:40;100453.28;;;19.01;75.70
21357;BME280;10836;53.068;18.234;2023-07-20T12:33:07;100470.00;;;19.04;74.97
21357;BME280;10836;53.068;18.234;2023-07-20T12:35:35;100468.63;;;19.10;74.39
21357;BME280;10836;53.068;18.234;2023-07-20T12:38:02;100469.06;;;19.00;75.87
21357;BME280;10836;53.068;18.234;2023-07-20T12:40:30;100467.78;;;19.39;74.27
21357;BME280;10836;53.068;18.234;2023-07-20T12:42:57;100467.59;;;19.44;73.52
21357;BME280;10836;53.068;18.234;2023-07-20T12:45:24;100461.03;;;19.70;71.24
21357;BME280;10836;53.068;18.234;2023-07-20T12:47:51;100453.88;;;19.48;70.52
21357;BME280;10836;53.068;18.234;2023-07-20T12:50:19;100448.00;;;19.28;72.16
21357;BME280;10836;53.068;18.234;2023-07-20T12:52:46;100450.78;;;18.78;72.94
21357;BME280;10836;53.068;18.234;2023-07-20T12:55:13;100451.22;;;18.89;72.60
21357;BME280;10836;53.068;18.234;2023-07-20T12:57:41;100446.59;;;19.02;73.64
21357;BME280;10836;53.068;18.234;2023-07-20T13:00:10;100457.19;;;19.20;71.85
21357;BME280;10836;53.068;18.234;2023-07-20T13:02:38;100457.31;;;19.03;70.35
21357;BME280;10836;53.068;18.234;2023-07-20T13:05:05;100464.47;;;19.04;70.84